createdAt,value
2023-05-05T00:00:13.038Z,240.60
2023-05-05T00:01:13.089Z,238.34
2023-05-05T00:02:13.223Z,239.52
2023-05-05T00:03:13.202Z,234.06
2023-05-05T00:04:13.205Z,227.68
2023-05-05T00:05:13.181Z,223.31
2023-05-05T00:06:13.631Z,221.93
2023-05-05T00:07:13.271Z,220.12
2023-05-05T00:08:13.358Z,215.09
2023-05-05T00:09:13.434Z,208.09
2023-05-05T00:10:13.443Z,203.83
2023-05-05T00:11:13.555Z,206.86
2023-05-05T00:12:13.517Z,210.58
2023-05-05T00:13:13.700Z,215.65
2023-05-05T00:14:13.631Z,223.25
2023-05-05T00:15:13.689Z,230.07
2023-05-05T00:16:13.747Z,228.00
2023-05-05T00:17:13.827Z,227.81
2023-05-05T00:18:13.832Z,230.50
2023-05-05T00:19:13.847Z,235.02
2023-05-05T00:20:13.895Z,235.22
2023-05-05T00:21:13.880Z,238.06
2023-05-05T00:22:13.898Z,254.30
2023-05-05T00:23:13.925Z,264.42
2023-05-05T00:24:13.990Z,264.63
2023-05-05T00:25:13.985Z,269.29
2023-05-05T00:26:14.006Z,279.57
2023-05-05T00:27:14.016Z,277.07
2023-05-05T00:28:14.050Z,274.39
2023-05-05T00:29:14.028Z,266.80
2023-05-05T00:30:14.076Z,257.37
2023-05-05T00:31:14.246Z,249.91
2023-05-05T00:32:14.147Z,243.37
2023-05-05T00:33:14.140Z,236.43
2023-05-05T00:34:14.157Z,236.45
2023-05-05T00:35:14.172Z,239.57
2023-05-05T00:36:14.213Z,237.32
2023-05-05T00:37:14.166Z,243.81
2023-05-05T00:38:14.180Z,238.86
2023-05-05T00:39:14.156Z,232.33
2023-05-05T00:40:14.188Z,229.58
2023-05-05T00:41:14.219Z,226.73
2023-05-05T00:42:14.219Z,231.68
2023-05-05T00:43:14.218Z,230.66
2023-05-05T00:44:14.350Z,229.52
2023-05-05T00:45:14.322Z,233.24
2023-05-05T00:46:14.406Z,234.71
2023-05-05T00:47:14.405Z,237.69
2023-05-05T00:48:14.473Z,240.99
2023-05-05T00:49:14.532Z,250.26
2023-05-05T00:50:14.476Z,250.09
2023-05-05T00:51:14.580Z,251.30
2023-05-05T00:52:14.593Z,243.47
2023-05-05T00:53:14.663Z,235.97
2023-05-05T00:54:14.665Z,234.07
2023-05-05T00:55:14.698Z,239.69
2023-05-05T00:56:14.711Z,249.08
2023-05-05T00:57:14.789Z,256.91
2023-05-05T00:58:14.870Z,260.01
2023-05-05T00:59:14.820Z,245.96
2023-05-05T01:00:14.880Z,243.27
2023-05-05T01:01:14.994Z,243.70
2023-05-05T01:02:15.010Z,243.99
2023-05-05T01:03:15.031Z,247.23
2023-05-05T01:04:15.030Z,246.98
2023-05-05T01:05:15.113Z,247.49
2023-05-05T01:06:15.122Z,248.26
2023-05-05T01:07:15.052Z,245.03
2023-05-05T01:08:15.118Z,239.21
2023-05-05T01:09:15.186Z,233.58
2023-05-05T01:10:20.239Z,226.23
2023-05-05T01:11:16.184Z,216.48
2023-05-05T01:12:15.625Z,226.63
2023-05-05T01:13:15.236Z,230.06
2023-05-05T01:14:15.147Z,229.57
2023-05-05T01:15:15.192Z,232.76
2023-05-05T01:16:15.182Z,227.90
2023-05-05T01:17:15.161Z,216.09
2023-05-05T01:18:15.121Z,210.31
2023-05-05T01:19:15.150Z,213.36
2023-05-05T01:20:15.160Z,214.05
2023-05-05T01:21:15.131Z,213.06
2023-05-05T01:22:15.163Z,210.07
2023-05-05T01:23:15.268Z,210.36
2023-05-05T01:24:15.135Z,212.80
2023-05-05T01:25:15.102Z,211.82
2023-05-05T01:26:15.127Z,209.42
2023-05-05T01:27:15.644Z,206.77
2023-05-05T01:28:15.212Z,201.01
2023-05-05T01:29:15.243Z,197.36
2023-05-05T01:30:15.240Z,198.68
2023-05-05T01:31:15.358Z,199.74
2023-05-05T01:32:15.337Z,199.79
2023-05-05T01:33:15.337Z,197.91
2023-05-05T01:34:15.379Z,195.67
2023-05-05T01:35:15.395Z,194.34
2023-05-05T01:36:15.396Z,193.70
2023-05-05T01:37:15.475Z,196.91
2023-05-05T01:38:15.498Z,200.49
2023-05-05T01:39:15.552Z,202.63
2023-05-05T01:40:15.565Z,207.86
2023-05-05T01:41:15.559Z,210.28
2023-05-05T01:42:15.603Z,208.81
2023-05-05T01:43:15.592Z,207.53
2023-05-05T01:44:15.577Z,209.26
2023-05-05T01:45:15.646Z,211.41
2023-05-05T01:46:15.762Z,211.13
2023-05-05T01:47:16.113Z,213.80
2023-05-05T01:48:15.840Z,217.72
2023-05-05T01:49:15.910Z,227.07
2023-05-05T01:50:15.932Z,230.73
2023-05-05T01:51:15.953Z,229.45
2023-05-05T01:52:16.008Z,223.08
2023-05-05T01:53:16.021Z,218.37
2023-05-05T01:54:16.070Z,216.90
2023-05-05T01:55:16.100Z,214.83
2023-05-05T01:56:16.132Z,215.52
2023-05-05T01:57:16.146Z,211.57
2023-05-05T01:58:16.186Z,203.94
2023-05-05T01:59:16.215Z,200.04
2023-05-05T02:00:17.153Z,197.43
2023-05-05T02:01:16.309Z,197.92
2023-05-05T02:02:16.345Z,193.88
2023-05-05T02:03:16.401Z,197.50
2023-05-05T02:04:16.346Z,200.62
2023-05-05T02:05:16.417Z,203.50
2023-05-05T02:06:16.469Z,199.57
2023-05-05T02:07:16.449Z,197.08
2023-05-05T02:08:16.628Z,206.23
2023-05-05T02:09:16.576Z,208.72
2023-05-05T02:10:16.599Z,213.12
2023-05-05T02:11:16.681Z,209.09
2023-05-05T02:12:16.711Z,217.11
2023-05-05T02:13:16.862Z,228.33
2023-05-05T02:14:16.717Z,233.25
2023-05-05T02:15:16.742Z,226.42
2023-05-05T02:16:16.974Z,229.64
2023-05-05T02:17:16.842Z,233.03
2023-05-05T02:18:16.848Z,236.76
2023-05-05T02:19:16.930Z,229.41
2023-05-05T02:20:16.961Z,217.50
2023-05-05T02:21:16.964Z,209.43
2023-05-05T02:22:17.010Z,209.69
2023-05-05T02:23:16.980Z,208.83
2023-05-05T02:24:17.008Z,209.95
2023-05-05T02:25:17.103Z,217.95
2023-05-05T02:26:17.152Z,231.49
2023-05-05T02:27:17.182Z,243.96
2023-05-05T02:28:17.206Z,252.10
2023-05-05T02:29:17.307Z,258.13
2023-05-05T02:30:17.283Z,256.33
2023-05-05T02:31:17.422Z,244.48
2023-05-05T02:32:17.365Z,238.87
2023-05-05T02:33:17.436Z,240.71
2023-05-05T02:34:17.455Z,234.78
2023-05-05T02:35:17.491Z,233.47
2023-05-05T02:36:17.477Z,236.44
2023-05-05T02:37:17.511Z,244.38
2023-05-05T02:38:17.596Z,249.10
2023-05-05T02:39:17.546Z,249.95
2023-05-05T02:40:17.512Z,243.47
2023-05-05T02:41:17.545Z,233.04
2023-05-05T02:42:17.554Z,227.33
2023-05-05T02:43:17.666Z,232.37
2023-05-05T02:44:17.572Z,242.65
2023-05-05T02:45:17.628Z,249.67
2023-05-05T02:46:17.787Z,248.92
2023-05-05T02:47:17.697Z,240.89
2023-05-05T02:48:17.706Z,240.03
2023-05-05T02:49:17.715Z,240.28
2023-05-05T02:50:17.732Z,237.26
2023-05-05T02:51:18.123Z,233.01
2023-05-05T02:52:17.778Z,227.47
2023-05-05T02:53:17.813Z,225.18
2023-05-05T02:54:17.788Z,219.58
2023-05-05T02:55:17.845Z,213.06
2023-05-05T02:56:17.859Z,211.79
2023-05-05T02:57:17.924Z,216.48
2023-05-05T02:58:17.949Z,226.15
2023-05-05T02:59:17.959Z,234.15
2023-05-05T03:00:17.990Z,238.05
2023-05-05T03:01:18.073Z,240.14
2023-05-05T03:02:18.068Z,243.55
2023-05-05T03:03:18.221Z,244.07
2023-05-05T03:04:18.167Z,244.73
2023-05-05T03:05:18.177Z,247.39
2023-05-05T03:06:18.202Z,247.09
2023-05-05T03:07:18.214Z,246.57
2023-05-05T03:08:18.229Z,248.06
2023-05-05T03:09:18.295Z,248.78
2023-05-05T03:10:18.309Z,245.83
2023-05-05T03:11:18.289Z,242.71
2023-05-05T03:12:18.360Z,238.81
2023-05-05T03:13:18.421Z,233.16
2023-05-05T03:14:18.500Z,228.40
2023-05-05T03:15:18.512Z,230.27
2023-05-05T03:16:18.594Z,232.86
2023-05-05T03:17:18.545Z,225.30
2023-05-05T03:18:18.576Z,220.02
2023-05-05T03:19:18.597Z,220.20
2023-05-05T03:20:18.675Z,216.59
2023-05-05T03:21:18.673Z,209.80
2023-05-05T03:22:18.742Z,213.01
2023-05-05T03:23:18.756Z,218.94
2023-05-05T03:24:18.783Z,219.96
2023-05-05T03:25:18.812Z,219.16
2023-05-05T03:26:18.882Z,218.68
2023-05-05T03:27:18.883Z,218.90
2023-05-05T03:28:18.921Z,221.05
2023-05-05T03:29:18.936Z,229.33
2023-05-05T03:30:18.991Z,238.36
2023-05-05T03:31:19.070Z,246.00
2023-05-05T03:32:19.035Z,250.61
2023-05-05T03:33:19.046Z,250.29
2023-05-05T03:34:19.073Z,249.71
2023-05-05T03:35:19.109Z,249.13
2023-05-05T03:36:19.179Z,245.87
2023-05-05T03:37:19.172Z,239.27
2023-05-05T03:38:19.244Z,237.08
2023-05-05T03:39:19.339Z,230.68
2023-05-05T03:40:19.441Z,226.67
2023-05-05T03:41:19.454Z,226.97
2023-05-05T03:42:19.386Z,228.88
2023-05-05T03:43:19.383Z,228.53
2023-05-05T03:44:19.401Z,231.14
2023-05-05T03:45:19.417Z,222.01
2023-05-05T03:46:19.484Z,223.78
2023-05-05T03:47:19.504Z,232.75
2023-05-05T03:48:19.478Z,237.83
2023-05-05T03:49:19.685Z,238.27
2023-05-05T03:50:19.572Z,242.00
2023-05-05T03:51:20.156Z,247.67
2023-05-05T03:52:19.658Z,245.53
2023-05-05T03:53:19.702Z,231.86
2023-05-05T03:54:19.759Z,222.50
2023-05-05T03:55:19.757Z,223.61
2023-05-05T03:56:19.794Z,228.23
2023-05-05T03:57:19.850Z,235.83
2023-05-05T03:58:19.895Z,241.21
2023-05-05T03:59:19.910Z,242.39
2023-05-05T04:00:19.909Z,246.29
2023-05-05T04:01:19.974Z,250.07
2023-05-05T04:02:20.077Z,250.00
2023-05-05T04:03:20.147Z,250.00
2023-05-05T04:04:20.119Z,250.17
2023-05-05T04:05:20.154Z,250.00
2023-05-05T04:06:20.183Z,250.18
2023-05-05T04:07:20.192Z,249.95
2023-05-05T04:08:20.269Z,248.68
2023-05-05T04:09:20.295Z,250.02
2023-05-05T04:10:20.371Z,250.02
2023-05-05T04:11:20.396Z,253.47
2023-05-05T04:12:20.402Z,252.61
2023-05-05T04:13:20.392Z,250.00
2023-05-05T04:14:20.406Z,250.68
2023-05-05T04:15:20.413Z,252.50
2023-05-05T04:16:20.492Z,253.01
2023-05-05T04:17:20.498Z,253.50
2023-05-05T04:18:20.540Z,254.83
2023-05-05T04:19:20.544Z,254.85
2023-05-05T04:20:20.604Z,252.19
2023-05-05T04:21:20.673Z,250.00
2023-05-05T04:22:20.668Z,250.00
2023-05-05T04:23:20.705Z,249.73
2023-05-05T04:24:20.718Z,249.81
2023-05-05T04:25:20.730Z,249.33
2023-05-05T04:26:20.760Z,248.87
2023-05-05T04:27:20.786Z,248.59
2023-05-05T04:28:21.749Z,249.33
2023-05-05T04:29:20.823Z,249.05
2023-05-05T04:30:20.889Z,248.97
2023-05-05T04:31:21.015Z,249.49
2023-05-05T04:32:21.002Z,249.72
2023-05-05T04:33:21.048Z,249.70
2023-05-05T04:34:21.066Z,250.09
2023-05-05T04:35:21.078Z,249.82
2023-05-05T04:36:21.127Z,250.00
2023-05-05T04:37:21.172Z,249.64
2023-05-05T04:38:21.286Z,250.00
2023-05-05T04:39:21.256Z,250.00
2023-05-05T04:40:21.252Z,249.29
2023-05-05T04:41:21.293Z,248.49
2023-05-05T04:42:21.366Z,244.40
2023-05-05T04:43:21.362Z,246.60
2023-05-05T04:44:21.398Z,247.14
2023-05-05T04:45:21.426Z,248.18
2023-05-05T04:46:21.744Z,250.00
2023-05-05T04:47:21.509Z,249.96
2023-05-05T04:48:21.529Z,246.90
2023-05-05T04:49:22.173Z,243.29
2023-05-05T04:50:21.619Z,240.93
2023-05-05T04:51:21.643Z,240.24
2023-05-05T04:52:21.663Z,241.08
2023-05-05T04:53:21.687Z,243.90
2023-05-05T04:54:21.700Z,245.78
2023-05-05T04:55:21.714Z,247.31
2023-05-05T04:56:21.820Z,249.10
2023-05-05T04:57:21.827Z,249.08
2023-05-05T04:58:21.797Z,248.57
2023-05-05T04:59:21.833Z,249.76
2023-05-05T05:00:21.932Z,250.00
2023-05-05T05:01:22.060Z,249.67
2023-05-05T05:02:22.107Z,251.18
2023-05-05T05:03:22.140Z,249.72
2023-05-05T05:04:22.080Z,248.13
2023-05-05T05:05:22.108Z,247.76
2023-05-05T05:06:22.154Z,246.03
2023-05-05T05:07:22.187Z,244.79
2023-05-05T05:08:22.716Z,247.53
2023-05-05T05:09:23.217Z,246.24
2023-05-05T05:10:22.292Z,242.79
2023-05-05T05:11:22.338Z,241.70
2023-05-05T05:12:22.338Z,240.24
2023-05-05T05:13:22.812Z,240.24
2023-05-05T05:14:22.428Z,240.80
2023-05-05T05:15:22.438Z,241.12
2023-05-05T05:16:23.248Z,242.79
2023-05-05T05:17:22.582Z,239.10
2023-05-05T05:18:22.560Z,229.49
2023-05-05T05:19:22.569Z,223.25
2023-05-05T05:20:22.634Z,221.79
2023-05-05T05:21:22.694Z,225.05
2023-05-05T05:22:22.772Z,226.04
2023-05-05T05:23:22.707Z,229.27
2023-05-05T05:24:22.761Z,233.98
2023-05-05T05:25:22.800Z,236.87
2023-05-05T05:26:22.803Z,238.89
2023-05-05T05:27:22.875Z,239.58
2023-05-05T05:28:22.891Z,238.98
2023-05-05T05:29:22.910Z,239.72
2023-05-05T05:30:22.934Z,238.10
2023-05-05T05:31:23.033Z,238.28
2023-05-05T05:32:22.987Z,237.91
2023-05-05T05:33:23.137Z,237.72
2023-05-05T05:34:23.090Z,236.07
2023-05-05T05:35:23.030Z,234.96
2023-05-05T05:36:23.216Z,234.55
2023-05-05T05:37:23.071Z,234.14
2023-05-05T05:38:23.091Z,233.28
2023-05-05T05:39:23.112Z,232.88
2023-05-05T05:40:23.731Z,226.81
2023-05-05T05:41:23.204Z,217.25
2023-05-05T05:42:23.212Z,211.13
2023-05-05T05:43:23.275Z,207.24
2023-05-05T05:44:23.395Z,202.57
2023-05-05T05:45:23.370Z,197.18
2023-05-05T05:46:23.347Z,196.34
2023-05-05T05:47:23.382Z,198.75
2023-05-05T05:48:23.317Z,198.86
2023-05-05T05:49:23.389Z,199.74
2023-05-05T05:50:23.381Z,199.33
2023-05-05T05:51:23.462Z,204.11
2023-05-05T05:52:23.447Z,207.25
2023-05-05T05:53:23.492Z,208.42
2023-05-05T05:54:23.545Z,209.87
2023-05-05T05:55:23.543Z,212.22
2023-05-05T05:56:23.612Z,215.25
2023-05-05T05:57:23.589Z,218.77
2023-05-05T05:58:23.604Z,221.96
2023-05-05T05:59:23.648Z,221.54
2023-05-05T06:00:23.692Z,221.86
2023-05-05T06:01:23.713Z,222.29
2023-05-05T06:02:23.719Z,220.33
2023-05-05T06:03:23.893Z,221.99
2023-05-05T06:04:23.848Z,222.82
2023-05-05T06:05:23.839Z,212.51
2023-05-05T06:06:24.218Z,202.97
2023-05-05T06:07:23.970Z,198.80
2023-05-05T06:08:25.686Z,199.57
2023-05-05T06:09:24.017Z,203.14
2023-05-05T06:10:27.770Z,203.14
2023-05-05T06:11:24.128Z,201.57
2023-05-05T06:12:24.033Z,190.37
2023-05-05T06:13:23.994Z,182.66
2023-05-05T06:14:24.020Z,179.85
2023-05-05T06:15:24.020Z,176.72
2023-05-05T06:16:24.104Z,174.47
2023-05-05T06:17:23.972Z,168.31
2023-05-05T06:18:24.288Z,171.07
2023-05-05T06:19:24.368Z,160.34
2023-05-05T06:20:23.970Z,163.81
2023-05-05T06:21:24.817Z,159.97
2023-05-05T06:22:24.046Z,158.93
2023-05-05T06:23:23.942Z,157.58
2023-05-05T06:24:23.946Z,147.13
2023-05-05T06:25:23.966Z,153.13
2023-05-05T06:26:23.939Z,155.55
2023-05-05T06:27:23.933Z,153.11
2023-05-05T06:28:24.388Z,149.47
2023-05-05T06:29:23.922Z,147.78
2023-05-05T06:30:23.893Z,151.59
2023-05-05T06:31:23.925Z,148.09
2023-05-05T06:32:24.014Z,148.13
2023-05-05T06:33:23.869Z,148.77
2023-05-05T06:34:23.879Z,147.09
2023-05-05T06:35:23.852Z,141.52
2023-05-05T06:36:24.050Z,142.17
2023-05-05T06:37:24.799Z,138.75
2023-05-05T06:38:24.711Z,130.36
2023-05-05T06:39:23.866Z,124.59
2023-05-05T06:40:23.921Z,122.52
2023-05-05T06:41:23.805Z,124.49
2023-05-05T06:42:23.831Z,125.62
2023-05-05T06:43:24.750Z,121.93
2023-05-05T06:44:23.798Z,115.62
2023-05-05T06:45:23.780Z,115.53
2023-05-05T06:46:23.826Z,116.84
2023-05-05T06:47:24.247Z,123.83
2023-05-05T06:48:23.776Z,117.61
2023-05-05T06:49:23.868Z,111.60
2023-05-05T06:50:23.972Z,115.75
2023-05-05T06:51:23.937Z,121.25
2023-05-05T06:52:24.064Z,121.25
2023-05-05T06:53:24.095Z,126.64
2023-05-05T06:54:24.091Z,119.08
2023-05-05T06:55:24.167Z,111.30
2023-05-05T06:56:24.192Z,107.01
2023-05-05T06:57:24.263Z,103.30
2023-05-05T06:58:24.272Z,104.91
2023-05-05T06:59:24.300Z,100.88
2023-05-05T07:00:24.408Z,115.83
2023-05-05T07:01:24.638Z,111.71
2023-05-05T07:02:26.662Z,109.01
2023-05-05T07:03:24.601Z,109.76
2023-05-05T07:04:24.657Z,108.13
2023-05-05T07:05:24.675Z,108.94
2023-05-05T07:06:25.245Z,108.35
2023-05-05T07:07:24.861Z,105.90
2023-05-05T07:08:25.133Z,101.11
2023-05-05T07:09:24.904Z,95.86
2023-05-05T07:10:24.907Z,99.04
2023-05-05T07:11:24.978Z,105.05
2023-05-05T07:12:25.044Z,108.84
2023-05-05T07:13:25.069Z,105.67
2023-05-05T07:14:25.087Z,99.49
2023-05-05T07:15:29.112Z,93.09
2023-05-05T07:16:25.229Z,85.02
2023-05-05T07:17:25.273Z,87.37
2023-05-05T07:18:25.120Z,92.48
2023-05-05T07:19:25.231Z,91.68
2023-05-05T07:20:25.211Z,90.07
2023-05-05T07:21:25.114Z,87.02
2023-05-05T07:22:25.133Z,82.27
2023-05-05T07:23:25.103Z,74.77
2023-05-05T07:24:25.068Z,75.88
2023-05-05T07:25:25.065Z,78.36
2023-05-05T07:26:25.109Z,73.31
2023-05-05T07:27:25.080Z,85.74
2023-05-05T07:28:25.094Z,85.99
2023-05-05T07:29:25.208Z,83.67
2023-05-05T07:30:25.530Z,87.86
2023-05-05T07:31:25.158Z,84.61
2023-05-05T07:32:25.118Z,83.07
2023-05-05T07:33:25.036Z,83.04
2023-05-05T07:34:25.255Z,75.57
2023-05-05T07:35:25.793Z,75.59
2023-05-05T07:36:25.089Z,70.86
2023-05-05T07:37:25.018Z,70.93
2023-05-05T07:38:25.087Z,62.48
2023-05-05T07:39:25.038Z,63.84
2023-05-05T07:40:25.043Z,65.93
2023-05-05T07:41:25.099Z,68.44
2023-05-05T07:42:25.149Z,68.84
2023-05-05T07:43:25.216Z,68.05
2023-05-05T07:44:25.225Z,73.13
2023-05-05T07:45:25.362Z,60.78
2023-05-05T07:46:25.413Z,60.04
2023-05-05T07:47:25.335Z,67.05
2023-05-05T07:48:25.483Z,74.61
2023-05-05T07:49:25.374Z,62.44
2023-05-05T07:50:26.246Z,56.78
2023-05-05T07:51:25.402Z,58.30
2023-05-05T07:52:43.708Z,52.98
2023-05-05T07:53:27.395Z,43.83
2023-05-05T07:54:25.417Z,46.74
2023-05-05T07:55:25.388Z,53.73
2023-05-05T07:56:25.407Z,54.09
2023-05-05T07:57:25.735Z,57.81
2023-05-05T07:58:25.397Z,51.29
2023-05-05T07:59:25.462Z,39.56
2023-05-05T08:00:25.447Z,34.64
2023-05-05T08:01:25.407Z,34.01
2023-05-05T08:02:25.499Z,31.64
2023-05-05T08:03:25.663Z,32.88
2023-05-05T08:04:25.537Z,29.38
2023-05-05T08:05:25.588Z,24.57
2023-05-05T08:06:25.506Z,33.98
2023-05-05T08:07:25.518Z,37.32
2023-05-05T08:08:25.532Z,32.69
2023-05-05T08:09:25.603Z,39.53
2023-05-05T08:10:25.628Z,29.28
2023-05-05T08:11:26.800Z,26.29
2023-05-05T08:12:25.810Z,37.35
2023-05-05T08:13:25.924Z,35.30
2023-05-05T08:14:25.796Z,29.55
2023-05-05T08:15:26.031Z,32.19
2023-05-05T08:16:26.000Z,35.57
2023-05-05T08:17:25.972Z,36.97
2023-05-05T08:18:26.130Z,39.56
2023-05-05T08:19:29.292Z,28.44
2023-05-05T08:20:26.794Z,24.55
2023-05-05T08:21:26.789Z,29.01
2023-05-05T08:22:26.066Z,37.53
2023-05-05T08:23:26.037Z,42.86
2023-05-05T08:24:25.972Z,35.29
2023-05-05T08:25:26.033Z,33.61
2023-05-05T08:26:26.633Z,44.87
2023-05-05T08:27:26.249Z,43.73
2023-05-05T08:28:25.961Z,33.84
2023-05-05T08:29:26.929Z,34.49
2023-05-05T08:30:25.959Z,43.66
2023-05-05T08:31:26.021Z,34.46
2023-05-05T08:32:27.253Z,31.86
2023-05-05T08:33:25.992Z,34.85
2023-05-05T08:34:26.139Z,37.80
2023-05-05T08:35:26.119Z,33.44
2023-05-05T08:36:26.157Z,31.03
2023-05-05T08:37:26.282Z,26.55
2023-05-05T08:38:26.204Z,19.07
2023-05-05T08:39:26.272Z,24.11
2023-05-05T08:40:26.337Z,25.25
2023-05-05T08:41:26.371Z,24.10
2023-05-05T08:42:37.066Z,19.43
2023-05-05T08:43:27.395Z,9.71
2023-05-05T08:44:27.441Z,4.52
2023-05-05T08:45:26.384Z,0.17
2023-05-05T08:46:26.366Z,0.00
2023-05-05T08:47:26.383Z,0.00
2023-05-05T08:48:26.382Z,0.00
2023-05-05T08:49:26.348Z,0.00
2023-05-05T08:50:26.366Z,0.00
2023-05-05T08:51:26.404Z,0.00
2023-05-05T08:52:26.468Z,1.25
2023-05-05T08:53:26.368Z,4.74
2023-05-05T08:54:26.364Z,3.23
2023-05-05T08:55:26.464Z,7.01
2023-05-05T08:56:26.372Z,12.22
2023-05-05T08:57:26.404Z,16.05
2023-05-05T08:58:28.786Z,21.62
2023-05-05T08:59:26.643Z,26.16
2023-05-05T09:00:26.714Z,27.75
2023-05-05T09:01:26.732Z,31.84
2023-05-05T09:02:26.892Z,39.41
2023-05-05T09:03:26.831Z,37.00
2023-05-05T09:04:26.892Z,35.99
2023-05-05T09:05:26.887Z,36.02
2023-05-05T09:06:26.894Z,41.32
2023-05-05T09:07:26.913Z,57.33
2023-05-05T09:08:26.962Z,42.64
2023-05-05T09:09:26.938Z,40.51
2023-05-05T09:10:27.923Z,32.15
2023-05-05T09:11:27.061Z,34.46
2023-05-05T09:12:27.301Z,34.53
2023-05-05T09:13:27.216Z,35.59
2023-05-05T09:14:27.285Z,38.11
2023-05-05T09:15:27.230Z,43.05
2023-05-05T09:16:27.277Z,36.37
2023-05-05T09:17:27.475Z,37.32
2023-05-05T09:18:27.359Z,37.92
2023-05-05T09:19:27.759Z,42.23
2023-05-05T09:20:27.376Z,40.54
2023-05-05T09:21:27.487Z,36.09
2023-05-05T09:22:27.430Z,35.26
2023-05-05T09:23:27.408Z,36.00
2023-05-05T09:24:27.487Z,36.84
2023-05-05T09:25:27.503Z,27.88
2023-05-05T09:26:27.519Z,24.27
2023-05-05T09:27:27.580Z,25.30
2023-05-05T09:28:27.532Z,27.42
2023-05-05T09:29:27.570Z,27.38
2023-05-05T09:30:27.586Z,28.86
2023-05-05T09:31:27.715Z,28.00
2023-05-05T09:32:29.202Z,29.36
2023-05-05T09:33:27.746Z,30.69
2023-05-05T09:34:27.759Z,32.84
2023-05-05T09:35:27.701Z,40.76
2023-05-05T09:36:27.631Z,43.31
2023-05-05T09:37:27.643Z,54.59
2023-05-05T09:38:32.295Z,56.01
2023-05-05T09:39:27.631Z,56.17
2023-05-05T09:40:27.794Z,56.34
2023-05-05T09:41:27.664Z,40.00
2023-05-05T09:42:27.604Z,40.82
2023-05-05T09:43:27.624Z,44.85
2023-05-05T09:44:27.793Z,63.71
2023-05-05T09:45:27.856Z,62.66
2023-05-05T09:46:28.347Z,51.69
2023-05-05T09:47:29.843Z,50.50
2023-05-05T09:48:30.051Z,41.71
2023-05-05T09:49:27.844Z,44.80
2023-05-05T09:50:27.873Z,64.93
2023-05-05T09:51:27.907Z,58.38
2023-05-05T09:52:27.975Z,65.12
2023-05-05T09:53:28.301Z,68.16
2023-05-05T09:54:28.134Z,50.74
2023-05-05T09:55:28.120Z,37.70
2023-05-05T09:56:28.124Z,38.40
2023-05-05T09:57:28.303Z,42.77
2023-05-05T09:58:28.281Z,45.30
2023-05-05T09:59:28.173Z,43.00
2023-05-05T10:00:28.201Z,42.29
2023-05-05T10:01:28.304Z,44.69
2023-05-05T10:02:28.325Z,42.83
2023-05-05T10:03:28.362Z,49.65
2023-05-05T10:04:29.544Z,64.39
2023-05-05T10:05:28.567Z,65.84
2023-05-05T10:06:28.442Z,66.69
2023-05-05T10:07:28.423Z,53.40
2023-05-05T10:08:28.449Z,44.27
2023-05-05T10:09:28.492Z,48.63
2023-05-05T10:10:29.079Z,48.86
2023-05-05T10:11:28.500Z,50.22
2023-05-05T10:12:28.849Z,47.22
2023-05-05T10:13:28.746Z,50.58
2023-05-05T10:14:28.582Z,51.33
2023-05-05T10:15:28.606Z,61.19
2023-05-05T10:16:29.152Z,67.76
2023-05-05T10:17:28.635Z,63.51
2023-05-05T10:18:28.740Z,65.59
2023-05-05T10:19:28.786Z,61.09
2023-05-05T10:20:28.767Z,63.82
2023-05-05T10:21:28.905Z,56.45
2023-05-05T10:22:28.859Z,67.01
2023-05-05T10:23:29.802Z,51.83
2023-05-05T10:24:29.820Z,42.27
2023-05-05T10:25:28.986Z,45.33
2023-05-05T10:26:28.961Z,45.52
2023-05-05T10:27:29.208Z,43.11
2023-05-05T10:28:29.813Z,45.58
2023-05-05T10:29:29.042Z,46.52
2023-05-05T10:30:29.252Z,42.03
2023-05-05T10:31:29.174Z,44.82
2023-05-05T10:32:53.504Z,50.17
2023-05-05T10:33:32.256Z,46.21
2023-05-05T10:34:29.570Z,40.85
2023-05-05T10:35:29.137Z,37.63
2023-05-05T10:36:29.194Z,36.78
2023-05-05T10:37:29.142Z,40.57
2023-05-05T10:38:29.134Z,42.77
2023-05-05T10:39:29.126Z,57.11
2023-05-05T10:40:29.106Z,54.01
2023-05-05T10:41:29.078Z,38.60
2023-05-05T10:42:29.080Z,30.42
2023-05-05T10:43:29.314Z,32.02
2023-05-05T10:44:29.351Z,32.45
2023-05-05T10:45:29.178Z,25.32
2023-05-05T10:46:29.097Z,22.22
2023-05-05T10:47:29.854Z,18.66
2023-05-05T10:48:29.856Z,24.76
2023-05-05T10:49:29.320Z,31.98
2023-05-05T10:50:29.186Z,41.47
2023-05-05T10:51:39.209Z,47.96
2023-05-05T10:52:30.015Z,49.07
2023-05-05T10:53:29.029Z,51.58
2023-05-05T10:54:29.032Z,50.78
2023-05-05T10:55:29.019Z,45.03
2023-05-05T10:56:29.004Z,45.84
2023-05-05T10:57:29.013Z,51.21
2023-05-05T10:58:28.996Z,47.26
2023-05-05T10:59:29.003Z,32.60
2023-05-05T11:00:29.147Z,33.49
2023-05-05T11:01:29.112Z,41.23
2023-05-05T11:02:29.003Z,55.52
2023-05-05T11:03:29.025Z,101.27
2023-05-05T11:04:29.007Z,96.11
2023-05-05T11:05:28.974Z,94.79
2023-05-05T11:06:29.024Z,88.38
2023-05-05T11:07:29.055Z,76.88
2023-05-05T11:08:29.084Z,69.11
2023-05-05T11:09:29.154Z,58.73
2023-05-05T11:10:29.265Z,45.73
2023-05-05T11:11:29.231Z,43.10
2023-05-05T11:12:29.324Z,49.13
2023-05-05T11:13:29.573Z,47.07
2023-05-05T11:14:29.804Z,54.76
2023-05-05T11:15:29.315Z,60.91
2023-05-05T11:16:29.533Z,72.21
2023-05-05T11:17:29.570Z,81.20
2023-05-05T11:18:29.352Z,61.71
2023-05-05T11:19:29.438Z,64.68
2023-05-05T11:20:29.476Z,71.08
2023-05-05T11:21:29.584Z,52.96
2023-05-05T11:22:29.616Z,49.28
2023-05-05T11:23:29.822Z,53.03
2023-05-05T11:24:29.728Z,67.13
2023-05-05T11:25:29.712Z,57.16
2023-05-05T11:26:29.766Z,27.34
2023-05-05T11:27:29.835Z,31.14
2023-05-05T11:28:29.946Z,46.24
2023-05-05T11:29:29.897Z,48.05
2023-05-05T11:30:29.958Z,44.03
2023-05-05T11:31:30.039Z,38.86
2023-05-05T11:32:30.142Z,37.72
2023-05-05T11:33:30.088Z,46.02
2023-05-05T11:34:30.242Z,43.06
2023-05-05T11:35:30.147Z,40.51
2023-05-05T11:36:30.159Z,39.25
2023-05-05T11:37:30.242Z,35.60
2023-05-05T11:38:30.267Z,39.47
2023-05-05T11:39:30.321Z,41.67
2023-05-05T11:40:30.446Z,44.92
2023-05-05T11:41:30.388Z,43.05
2023-05-05T11:42:30.502Z,49.44
2023-05-05T11:43:30.501Z,56.75
2023-05-05T11:44:30.489Z,35.05
2023-05-05T11:45:30.496Z,36.70
2023-05-05T11:46:30.553Z,40.98
2023-05-05T11:47:30.575Z,48.26
2023-05-05T11:48:30.542Z,56.69
2023-05-05T11:49:30.550Z,45.09
2023-05-05T11:50:30.534Z,31.85
2023-05-05T11:51:30.544Z,32.46
2023-05-05T11:52:30.574Z,36.23
2023-05-05T11:53:30.631Z,41.17
2023-05-05T11:54:30.619Z,44.93
2023-05-05T11:55:30.628Z,43.58
2023-05-05T11:56:30.645Z,42.08
2023-05-05T11:57:30.681Z,38.55
2023-05-05T11:58:30.695Z,40.35
2023-05-05T11:59:30.761Z,39.58
2023-05-05T12:00:30.810Z,37.02
2023-05-05T12:01:30.835Z,39.22
2023-05-05T12:02:30.953Z,40.28
2023-05-05T12:03:31.118Z,39.37
2023-05-05T12:04:31.064Z,30.12
2023-05-05T12:05:30.951Z,30.99
2023-05-05T12:06:31.077Z,28.26
2023-05-05T12:07:31.059Z,23.49
2023-05-05T12:08:31.072Z,28.95
2023-05-05T12:09:31.080Z,30.98
2023-05-05T12:10:31.116Z,36.92
2023-05-05T12:11:31.165Z,51.43
2023-05-05T12:12:31.173Z,30.56
2023-05-05T12:13:31.249Z,31.88
2023-05-05T12:14:31.229Z,35.59
2023-05-05T12:15:31.440Z,69.86
2023-05-05T12:16:31.357Z,53.99
2023-05-05T12:17:31.307Z,48.57
2023-05-05T12:18:31.360Z,48.26
2023-05-05T12:19:31.367Z,43.65
2023-05-05T12:20:31.512Z,44.06
2023-05-05T12:21:31.467Z,28.40
2023-05-05T12:22:31.540Z,13.37
2023-05-05T12:23:31.559Z,12.29
2023-05-05T12:24:31.722Z,13.19
2023-05-05T12:25:31.643Z,25.87
2023-05-05T12:26:31.697Z,26.55
2023-05-05T12:27:31.712Z,26.62
2023-05-05T12:28:31.754Z,28.25
2023-05-05T12:29:31.766Z,30.79
2023-05-05T12:30:31.907Z,36.43
2023-05-05T12:31:31.812Z,33.80
2023-05-05T12:32:31.850Z,36.02
2023-05-05T12:33:31.852Z,33.83
2023-05-05T12:34:31.873Z,32.82
2023-05-05T12:35:31.933Z,36.09
2023-05-05T12:36:31.934Z,38.40
2023-05-05T12:37:31.934Z,41.51
2023-05-05T12:38:32.351Z,64.05
2023-05-05T12:39:32.055Z,56.16